sensor_id;sensor_type;location;lat;lon;timestamp;pressure;altitude;pressure_sealevel;temperature;humidity
12219;BME280;6172;42.646;23.344;2023-04-28T00:00:21;94798.13;;;5.39;62.22
12219;BME280;6172;42.646;23.344;2023-04-28T00:02:47;94783.81;;;5.35;62.50
12219;BME280;6172;42.646;23.344;2023-04-28T00:05:14;94794.59;;;5.28;63.19
12219;BME280;6172;42.646;23.344;2023-04-28T00:07:43;94782.59;;;5.22;64.78
12219;BME280;6172;42.646;23.344;2023-04-28T00:10:10;94793.47;;;5.32;63.56
12219;BME280;6172;42.646;23.344;2023-04-28T00:12:37;94798.41;;;5.23;63.59
12219;BME280;6172;42.646;23.344;2023-04-28T00:15:05;94793.75;;;5.17;64.56
12219;BME280;6172;42.646;23.344;2023-04-28T00:17:32;94796.06;;;5.18;64.73
12219;BME280;6172;42.646;23.344;2023-04-28T00:19:59;94799.09;;;5.10;65.87
12219;BME280;6172;42.646;23.344;2023-04-28T00:22:26;94789.72;;;4.97;65.21
12219;BME280;6172;42.646;23.344;2023-04-28T00:24:54;94801.88;;;5.17;64.93
12219;BME280;6172;42.646;23.344;2023-04-28T00:27:21;94796.06;;;5.15;65.38
12219;BME280;6172;42.646;23.344;2023-04-28T00:29:48;94790.56;;;5.01;66.46
12219;BME280;6172;42.646;23.344;2023-04-28T00:32:15;94796.75;;;5.05;66.36
12219;BME280;6172;42.646;23.344;2023-04-28T00:34:42;94794.75;;;4.95;67.30
12219;BME280;6172;42.646;23.344;2023-04-28T00:37:09;94805.13;;;4.93;67.43
12219;BME280;6172;42.646;23.344;2023-04-28T00:39:35;94803.66;;;4.99;66.98
12219;BME280;6172;42.646;23.344;2023-04-28T00:42:04;94807.41;;;4.84;67.54
12219;BME280;6172;42.646;23.344;2023-04-28T00:44:31;94812.41;;;4.85;68.07
12219;BME280;6172;42.646;23.344;2023-04-28T00:46:58;94808.44;;;4.69;69.56
12219;BME280;6172;42.646;23.344;2023-04-28T00:49:25;94802.44;;;4.46;71.25
12219;BME280;6172;42.646;23.344;2023-04-28T00:51:53;94806.31;;;4.48;72.02
12219;BME280;6172;42.646;23.344;2023-04-28T00:54:19;94813.66;;;4.51;72.50
12219;BME280;6172;42.646;23.344;2023-04-28T00:56:47;94815.59;;;4.51;71.92
12219;BME280;6172;42.646;23.344;2023-04-28T00:59:18;94810.94;;;4.48;72.95
12219;BME280;6172;42.646;23.344;2023-04-28T01:01:45;94815.56;;;4.47;73.38
12219;BME280;6172;42.646;23.344;2023-04-28T01:04:13;94817.44;;;4.43;73.63
12219;BME280;6172;42.646;23.344;2023-04-28T01:06:41;94820.84;;;4.37;74.69
12219;BME280;6172;42.646;23.344;2023-04-28T01:09:09;94815.38;;;4.26;74.99
12219;BME280;6172;42.646;23.344;2023-04-28T01:11:36;94810.22;;;4.51;73.32
12219;BME280;6172;42.646;23.344;2023-04-28T01:14:03;94822.38;;;4.34;73.09
12219;BME280;6172;42.646;23.344;2023-04-28T01:16:31;94820.91;;;4.44;73.17
12219;BME280;6172;42.646;23.344;2023-04-28T01:18:59;94822.38;;;4.34;72.89
12219;BME280;6172;42.646;23.344;2023-04-28T01:21:26;94822.41;;;4.38;72.69
12219;BME280;6172;42.646;23.344;2023-04-28T01:23:56;94817.34;;;4.33;72.60
12219;BME280;6172;42.646;23.344;2023-04-28T01:26:24;94820.47;;;4.35;72.65
12219;BME280;6172;42.646;23.344;2023-04-28T01:28:51;94814.72;;;4.40;71.05
12219;BME280;6172;42.646;23.344;2023-04-28T01:31:18;94822.38;;;4.34;70.54
12219;BME280;6172;42.646;23.344;2023-04-28T01:33:45;94816.34;;;4.48;69.96
12219;BME280;6172;42.646;23.344;2023-04-28T01:36:14;94827.50;;;4.46;69.99
12219;BME280;6172;42.646;23.344;2023-04-28T01:38:41;94830.69;;;4.19;71.14
12219;BME280;6172;42.646;23.344;2023-04-28T01:41:09;94828.00;;;4.19;72.55
12219;BME280;6172;42.646;23.344;2023-04-28T01:43:36;94827.31;;;4.29;71.31
12219;BME280;6172;42.646;23.344;2023-04-28T01:46:03;94826.59;;;4.32;70.55
12219;BME280;6172;42.646;23.344;2023-04-28T01:48:30;94828.56;;;4.05;71.64
12219;BME280;6172;42.646;23.344;2023-04-28T01:50:57;94825.56;;;4.10;72.01
12219;BME280;6172;42.646;23.344;2023-04-28T01:53:24;94829.53;;;4.20;71.85
12219;BME280;6172;42.646;23.344;2023-04-28T01:55:53;94822.97;;;4.17;71.34
12219;BME280;6172;42.646;23.344;2023-04-28T01:58:22;94822.44;;;4.08;71.46
12219;BME280;6172;42.646;23.344;2023-04-28T02:00:49;94813.28;;;4.13;71.31
12219;BME280;6172;42.646;23.344;2023-04-28T02:03:16;94823.03;;;4.24;70.59
12219;BME280;6172;42.646;23.344;2023-04-28T02:05:43;94833.66;;;4.10;71.01
12219;BME280;6172;42.646;23.344;2023-04-28T02:08:10;94832.72;;;3.99;72.86
12219;BME280;6172;42.646;23.344;2023-04-28T02:10:36;94824.28;;;4.01;73.27
12219;BME280;6172;42.646;23.344;2023-04-28T02:13:03;94835.44;;;3.99;73.89
12219;BME280;6172;42.646;23.344;2023-04-28T02:15:32;94832.41;;;4.04;74.31
12219;BME280;6172;42.646;23.344;2023-04-28T02:17:59;94839.34;;;4.02;73.82
12219;BME280;6172;42.646;23.344;2023-04-28T02:20:26;94841.31;;;4.05;74.72
12219;BME280;6172;42.646;23.344;2023-04-28T02:22:53;94831.91;;;3.92;74.53
12219;BME280;6172;42.646;23.344;2023-04-28T02:25:20;94840.34;;;3.90;75.71
12219;BME280;6172;42.646;23.344;2023-04-28T02:27:47;94833.94;;;4.02;74.88
12219;BME280;6172;42.646;23.344;2023-04-28T02:30:14;94835.16;;;4.08;74.62
12219;BME280;6172;42.646;23.344;2023-04-28T02:32:42;94847.28;;;3.91;76.49
12219;BME280;6172;42.646;23.344;2023-04-28T02:35:09;94845.13;;;4.04;76.96
12219;BME280;6172;42.646;23.344;2023-04-28T02:37:36;94841.16;;;3.94;77.17
12219;BME280;6172;42.646;23.344;2023-04-28T02:40:04;94845.47;;;4.02;75.81
12219;BME280;6172;42.646;23.344;2023-04-28T02:42:31;94848.47;;;3.94;75.67
12219;BME280;6172;42.646;23.344;2023-04-28T02:44:58;94859.34;;;4.01;76.18
12219;BME280;6172;42.646;23.344;2023-04-28T02:47:25;94856.09;;;3.85;78.91
12219;BME280;6172;42.646;23.344;2023-04-28T02:49:53;94867.22;;;3.83;78.79
12219;BME280;6172;42.646;23.344;2023-04-28T02:52:20;94847.34;;;3.95;77.78
12219;BME280;6172;42.646;23.344;2023-04-28T02:54:47;94858.66;;;3.78;78.42
12219;BME280;6172;42.646;23.344;2023-04-28T02:57:18;94865.56;;;3.75;79.59
12219;BME280;6172;42.646;23.344;2023-04-28T02:59:45;94856.34;;;3.76;79.95
12219;BME280;6172;42.646;23.344;2023-04-28T03:02:12;94864.91;;;3.82;78.92
12219;BME280;6172;42.646;23.344;2023-04-28T03:04:40;94867.25;;;3.87;79.38
12219;BME280;6172;42.646;23.344;2023-04-28T03:07:08;94861.78;;;3.80;77.63
12219;BME280;6172;42.646;23.344;2023-04-28T03:09:35;94874.75;;;3.71;79.79
12219;BME280;6172;42.646;23.344;2023-04-28T03:12:02;94857.41;;;3.68;79.92
12219;BME280;6172;42.646;23.344;2023-04-28T03:14:29;94876.44;;;3.82;79.37
12219;BME280;6172;42.646;23.344;2023-04-28T03:16:55;94870.38;;;3.89;77.91
12219;BME280;6172;42.646;23.344;2023-04-28T03:19:22;94872.75;;;3.64;78.86
12219;BME280;6172;42.646;23.344;2023-04-28T03:21:49;94861.72;;;3.76;78.44
12219;BME280;6172;42.646;23.344;2023-04-28T03:24:17;94869.94;;;3.83;77.05
12219;BME280;6172;42.646;23.344;2023-04-28T03:26:44;94884.66;;;3.93;75.16
12219;BME280;6172;42.646;23.344;2023-04-28T03:29:11;94884.50;;;3.79;74.37
12219;BME280;6172;42.646;23.344;2023-04-28T03:31:38;94886.78;;;3.77;75.08
12219;BME280;6172;42.646;23.344;2023-04-28T03:34:08;94874.03;;;3.74;75.40
12219;BME280;6172;42.646;23.344;2023-04-28T03:36:34;94904.50;;;3.78;75.50
12219;BME280;6172;42.646;23.344;2023-04-28T03:39:01;94897.47;;;3.70;76.24
12219;BME280;6172;42.646;23.344;2023-04-28T03:41:30;94904.75;;;3.69;77.00
12219;BME280;6172;42.646;23.344;2023-04-28T03:43:57;94910.81;;;3.89;74.84
12219;BME280;6172;42.646;23.344;2023-04-28T03:46:23;94910.38;;;3.83;73.87
12219;BME280;6172;42.646;23.344;2023-04-28T03:48:50;94915.84;;;3.90;72.96
12219;BME280;6172;42.646;23.344;2023-04-28T03:51:17;94918.75;;;3.78;73.63
12219;BME280;6172;42.646;23.344;2023-04-28T03:53:44;94910.91;;;3.96;73.16
12219;BME280;6172;42.646;23.344;2023-04-28T03:56:11;94921.34;;;4.01;73.07
12219;BME280;6172;42.646;23.344;2023-04-28T03:58:39;94929.06;;;3.99;71.43
12219;BME280;6172;42.646;23.344;2023-04-28T04:01:06;94922.09;;;3.98;72.00
12219;BME280;6172;42.646;23.344;2023-04-28T04:03:33;94928.03;;;4.10;71.11
12219;BME280;6172;42.646;23.344;2023-04-28T04:06:00;94928.88;;;4.14;69.84
12219;BME280;6172;42.646;23.344;2023-04-28T04:08:27;94941.72;;;4.24;69.24
12219;BME280;6172;42.646;23.344;2023-04-28T04:10:54;94945.97;;;4.25;68.41
12219;BME280;6172;42.646;23.344;2023-04-28T04:13:21;94939.19;;;4.09;69.04
12219;BME280;6172;42.646;23.344;2023-04-28T04:15:49;94944.28;;;4.14;68.92
12219;BME280;6172;42.646;23.344;2023-04-28T04:18:17;94933.09;;;4.12;68.68
12219;BME280;6172;42.646;23.344;2023-04-28T04:20:44;94947.25;;;4.35;67.18
12219;BME280;6172;42.646;23.344;2023-04-28T04:23:11;94938.25;;;4.24;67.46
12219;BME280;6172;42.646;23.344;2023-04-28T04:25:38;94951.94;;;4.38;66.89
12219;BME280;6172;42.646;23.344;2023-04-28T04:28:05;94948.59;;;4.51;65.91
12219;BME280;6172;42.646;23.344;2023-04-28T04:30:33;94950.19;;;4.56;65.85
12219;BME280;6172;42.646;23.344;2023-04-28T04:33:01;94959.56;;;4.65;65.34
12219;BME280;6172;42.646;23.344;2023-04-28T04:35:28;94951.97;;;4.41;65.83
12219;BME280;6172;42.646;23.344;2023-04-28T04:37:55;94948.94;;;4.46;65.28
12219;BME280;6172;42.646;23.344;2023-04-28T04:40:22;94961.50;;;4.65;65.05
12219;BME280;6172;42.646;23.344;2023-04-28T04:42:49;94955.28;;;4.61;64.80
12219;BME280;6172;42.646;23.344;2023-04-28T04:45:16;94948.03;;;4.68;63.08
12219;BME280;6172;42.646;23.344;2023-04-28T04:47:43;94950.91;;;4.86;63.41
12219;BME280;6172;42.646;23.344;2023-04-28T04:50:11;94961.78;;;4.93;62.72
12219;BME280;6172;42.646;23.344;2023-04-28T04:52:38;94964.16;;;4.98;62.23
12219;BME280;6172;42.646;23.344;2023-04-28T04:55:06;94969.28;;;5.10;62.99
12219;BME280;6172;42.646;23.344;2023-04-28T04:57:35;94970.84;;;5.11;62.59
12219;BME280;6172;42.646;23.344;2023-04-28T05:00:03;94987.59;;;5.27;61.62
12219;BME280;6172;42.646;23.344;2023-04-28T05:02:30;94979.06;;;5.25;60.71
12219;BME280;6172;42.646;23.344;2023-04-28T05:04:56;94976.84;;;5.34;60.88
12219;BME280;6172;42.646;23.344;2023-04-28T05:07:25;94963.53;;;5.58;60.06
12219;BME280;6172;42.646;23.344;2023-04-28T05:09:52;94978.22;;;5.61;59.25
12219;BME280;6172;42.646;23.344;2023-04-28T05:12:19;94976.28;;;5.58;59.56
12219;BME280;6172;42.646;23.344;2023-04-28T05:14:46;94985.59;;;5.67;59.33
12219;BME280;6172;42.646;23.344;2023-04-28T05:17:13;94969.47;;;5.78;59.18
12219;BME280;6172;42.646;23.344;2023-04-28T05:19:40;94974.91;;;5.82;58.81
12219;BME280;6172;42.646;23.344;2023-04-28T05:22:07;94975.75;;;5.96;58.57
12219;BME280;6172;42.646;23.344;2023-04-28T05:24:36;94986.81;;;6.31;57.63
12219;BME280;6172;42.646;23.344;2023-04-28T05:27:02;94986.50;;;6.50;56.96
12219;BME280;6172;42.646;23.344;2023-04-28T05:29:29;94979.41;;;7.31;55.17
12219;BME280;6172;42.646;23.344;2023-04-28T05:31:56;94986.34;;;8.52;50.99
12219;BME280;6172;42.646;23.344;2023-04-28T05:34:24;94975.09;;;9.80;47.33
12219;BME280;6172;42.646;23.344;2023-04-28T05:36:51;94954.16;;;10.88;43.47
12219;BME280;6172;42.646;23.344;2023-04-28T05:39:18;94962.06;;;12.78;40.53
12219;BME280;6172;42.646;23.344;2023-04-28T05:41:46;94957.75;;;14.47;36.64
12219;BME280;6172;42.646;23.344;2023-04-28T05:44:14;94949.94;;;15.57;34.25
12219;BME280;6172;42.646;23.344;2023-04-28T05:46:43;94951.94;;;15.94;32.97
12219;BME280;6172;42.646;23.344;2023-04-28T05:49:10;94954.03;;;15.65;32.57
12219;BME280;6172;42.646;23.344;2023-04-28T05:51:37;94940.38;;;16.11;31.83
12219;BME280;6172;42.646;23.344;2023-04-28T05:54:04;94960.03;;;15.35;32.98
12219;BME280;6172;42.646;23.344;2023-04-28T05:56:32;94954.31;;;16.29;31.54
12219;BME280;6172;42.646;23.344;2023-04-28T05:59:00;94959.03;;;16.63;31.43
12219;BME280;6172;42.646;23.344;2023-04-28T06:01:28;94953.69;;;16.59;29.88
12219;BME280;6172;42.646;23.344;2023-04-28T06:03:55;94959.97;;;16.13;31.07
12219;BME280;6172;42.646;23.344;2023-04-28T06:06:23;94959.00;;;16.75;30.00
12219;BME280;6172;42.646;23.344;2023-04-28T06:08:50;94943.16;;;15.86;31.26
12219;BME280;6172;42.646;23.344;2023-04-28T06:11:17;94959.09;;;16.50;30.26
12219;BME280;6172;42.646;23.344;2023-04-28T06:13:46;94956.50;;;17.02;29.00
12219;BME280;6172;42.646;23.344;2023-04-28T06:16:15;94949.06;;;16.10;29.96
12219;BME280;6172;42.646;23.344;2023-04-28T06:18:43;94952.69;;;16.87;28.92
12219;BME280;6172;42.646;23.344;2023-04-28T06:21:10;94950.03;;;16.16;29.52
12219;BME280;6172;42.646;23.344;2023-04-28T06:23:37;94953.00;;;16.55;29.36
12219;BME280;6172;42.646;23.344;2023-04-28T06:26:05;94954.47;;;16.81;29.39
12219;BME280;6172;42.646;23.344;2023-04-28T06:28:32;94953.78;;;17.11;28.53
12219;BME280;6172;42.646;23.344;2023-04-28T06:30:59;94953.41;;;18.23;27.73
12219;BME280;6172;42.646;23.344;2023-04-28T06:33:27;94965.41;;;18.38;27.35
12219;BME280;6172;42.646;23.344;2023-04-28T06:35:54;94959.66;;;17.75;28.02
12219;BME280;6172;42.646;23.344;2023-04-28T06:38:21;94952.09;;;18.45;27.32
12219;BME280;6172;42.646;23.344;2023-04-28T06:40:47;94963.03;;;17.70;27.51
12219;BME280;6172;42.646;23.344;2023-04-28T06:43:14;94953.38;;;17.44;27.96
12219;BME280;6172;42.646;23.344;2023-04-28T06:45:41;94958.09;;;17.43;27.86
12219;BME280;6172;42.646;23.344;2023-04-28T06:48:08;94943.88;;;16.71;28.60
12219;BME280;6172;42.646;23.344;2023-04-28T06:50:37;94949.03;;;17.33;28.11
12219;BME280;6172;42.646;23.344;2023-04-28T06:53:04;94944.91;;;17.60;27.99
12219;BME280;6172;42.646;23.344;2023-04-28T06:55:32;94947.56;;;16.77;28.28
12219;BME280;6172;42.646;23.344;2023-04-28T06:58:00;94941.94;;;16.46;28.69
12219;BME280;6172;42.646;23.344;2023-04-28T07:00:27;94951.88;;;16.65;28.79
12219;BME280;6172;42.646;23.344;2023-04-28T07:02:53;94945.56;;;16.43;29.15
12219;BME280;6172;42.646;23.344;2023-04-28T07:05:20;94942.31;;;17.96;27.34
12219;BME280;6172;42.646;23.344;2023-04-28T07:07:49;94953.72;;;16.81;28.25
12219;BME280;6172;42.646;23.344;2023-04-28T07:10:16;94954.69;;;17.08;28.71
12219;BME280;6172;42.646;23.344;2023-04-28T07:12:43;94940.03;;;16.22;29.14
12219;BME280;6172;42.646;23.344;2023-04-28T07:15:11;94943.59;;;17.52;27.54
12219;BME280;6172;42.646;23.344;2023-04-28T07:17:38;94952.88;;;17.14;27.80
12219;BME280;6172;42.646;23.344;2023-04-28T07:20:06;94939.38;;;16.86;28.40
12219;BME280;6172;42.646;23.344;2023-04-28T07:22:33;94951.25;;;17.48;28.46
12219;BME280;6172;42.646;23.344;2023-04-28T07:25:02;94946.50;;;18.18;26.58
12219;BME280;6172;42.646;23.344;2023-04-28T07:27:30;94938.03;;;17.12;28.08
12219;BME280;6172;42.646;23.344;2023-04-28T07:29:57;94939.78;;;17.49;27.43
12219;BME280;6172;42.646;23.344;2023-04-28T07:32:24;94941.44;;;17.47;27.62
12219;BME280;6172;42.646;23.344;2023-04-28T07:34:51;94934.66;;;17.60;27.23
12219;BME280;6172;42.646;23.344;2023-04-28T07:37:18;94925.59;;;17.29;27.87
12219;BME280;6172;42.646;23.344;2023-04-28T07:39:45;94927.13;;;17.08;28.01
12219;BME280;6172;42.646;23.344;2023-04-28T07:42:14;94931.00;;;17.42;28.56
12219;BME280;6172;42.646;23.344;2023-04-28T07:44:42;94949.06;;;16.90;28.93
12219;BME280;6172;42.646;23.344;2023-04-28T07:47:12;94943.69;;;17.61;28.06
12219;BME280;6172;42.646;23.344;2023-04-28T07:49:40;94943.03;;;17.04;27.91
12219;BME280;6172;42.646;23.344;2023-04-28T07:52:06;94933.53;;;16.62;28.58
12219;BME280;6172;42.646;23.344;2023-04-28T07:54:34;94950.31;;;18.21;27.08
12219;BME280;6172;42.646;23.344;2023-04-28T07:57:03;94940.94;;;18.00;27.35
12219;BME280;6172;42.646;23.344;2023-04-28T07:59:32;94942.22;;;17.47;26.85
12219;BME280;6172;42.646;23.344;2023-04-28T08:02:00;94937.13;;;17.37;27.57
12219;BME280;6172;42.646;23.344;2023-04-28T08:04:27;94939.97;;;17.24;27.83
12219;BME280;6172;42.646;23.344;2023-04-28T08:06:56;94937.84;;;18.74;26.80
12219;BME280;6172;42.646;23.344;2023-04-28T08:09:24;94937.50;;;18.36;27.21
12219;BME280;6172;42.646;23.344;2023-04-28T08:11:51;94942.22;;;17.69;27.14
12219;BME280;6172;42.646;23.344;2023-04-28T08:14:19;94937.59;;;17.13;27.71
12219;BME280;6172;42.646;23.344;2023-04-28T08:17:00;94940.53;;;17.50;27.56
12219;BME280;6172;42.646;23.344;2023-04-28T08:19:28;94940.28;;;17.96;27.01
12219;BME280;6172;42.646;23.344;2023-04-28T08:21:55;94932.41;;;16.94;27.91
12219;BME280;6172;42.646;23.344;2023-04-28T08:24:24;94950.66;;;17.00;27.23
12219;BME280;6172;42.646;23.344;2023-04-28T08:26:54;94929.84;;;16.78;27.04
12219;BME280;6172;42.646;23.344;2023-04-28T08:29:21;94925.06;;;17.21;26.95
12219;BME280;6172;42.646;23.344;2023-04-28T08:31:49;94941.13;;;17.45;26.64
12219;BME280;6172;42.646;23.344;2023-04-28T08:34:16;94929.59;;;16.85;27.13
12219;BME280;6172;42.646;23.344;2023-04-28T08:36:45;94931.63;;;16.25;28.52
12219;BME280;6172;42.646;23.344;2023-04-28T08:39:12;94935.66;;;15.99;28.08
12219;BME280;6172;42.646;23.344;2023-04-28T08:41:40;94934.81;;;15.77;29.22
12219;BME280;6172;42.646;23.344;2023-04-28T08:44:08;94938.19;;;15.94;28.45
12219;BME280;6172;42.646;23.344;2023-04-28T08:46:35;94935.03;;;16.42;28.42
12219;BME280;6172;42.646;23.344;2023-04-28T08:49:13;94936.19;;;16.19;28.06
12219;BME280;6172;42.646;23.344;2023-04-28T08:51:44;94931.63;;;14.71;29.20
12219;BME280;6172;42.646;23.344;2023-04-28T08:54:14;94923.56;;;15.22;29.08
12219;BME280;6172;42.646;23.344;2023-04-28T08:56:42;94930.72;;;15.44;28.28
12219;BME280;6172;42.646;23.344;2023-04-28T08:59:10;94921.88;;;15.12;28.75
12219;BME280;6172;42.646;23.344;2023-04-28T09:01:38;94929.28;;;15.52;29.56
12219;BME280;6172;42.646;23.344;2023-04-28T09:04:06;94918.84;;;15.47;28.67
12219;BME280;6172;42.646;23.344;2023-04-28T09:06:37;94913.91;;;15.42;29.44
12219;BME280;6172;42.646;23.344;2023-04-28T09:09:20;94914.34;;;15.53;29.95
12219;BME280;6172;42.646;23.344;2023-04-28T09:11:53;94909.84;;;15.72;30.08
12219;BME280;6172;42.646;23.344;2023-04-28T09:14:21;94898.72;;;16.00;29.94
12219;BME280;6172;42.646;23.344;2023-04-28T09:16:49;94900.53;;;16.16;28.85
12219;BME280;6172;42.646;23.344;2023-04-28T09:19:19;94899.78;;;16.15;28.65
12219;BME280;6172;42.646;23.344;2023-04-28T09:21:48;94901.47;;;16.34;28.00
12219;BME280;6172;42.646;23.344;2023-04-28T09:24:33;94891.16;;;15.92;28.91
12219;BME280;6172;42.646;23.344;2023-04-28T09:27:02;94895.25;;;16.21;28.61
12219;BME280;6172;42.646;23.344;2023-04-28T09:29:31;94890.47;;;16.34;28.55
12219;BME280;6172;42.646;23.344;2023-04-28T09:32:12;94886.41;;;15.92;29.45
12219;BME280;6172;42.646;23.344;2023-04-28T09:34:45;94881.75;;;16.14;29.06
12219;BME280;6172;42.646;23.344;2023-04-28T09:37:16;94880.84;;;16.17;29.56
12219;BME280;6172;42.646;23.344;2023-04-28T09:39:44;94877.72;;;16.06;28.83
12219;BME280;6172;42.646;23.344;2023-04-28T09:42:30;94869.56;;;16.03;28.79
12219;BME280;6172;42.646;23.344;2023-04-28T09:44:57;94860.59;;;15.90;28.79
12219;BME280;6172;42.646;23.344;2023-04-28T09:47:24;94873.13;;;15.66;29.47
12219;BME280;6172;42.646;23.344;2023-04-28T09:49:57;94869.34;;;16.31;28.94
12219;BME280;6172;42.646;23.344;2023-04-28T09:52:24;94874.31;;;16.36;28.30
12219;BME280;6172;42.646;23.344;2023-04-28T09:54:52;94856.59;;;16.37;27.68
12219;BME280;6172;42.646;23.344;2023-04-28T09:57:19;94855.22;;;15.61;28.15
12219;BME280;6172;42.646;23.344;2023-04-28T09:59:49;94853.41;;;15.92;29.16
12219;BME280;6172;42.646;23.344;2023-04-28T10:02:17;94848.75;;;15.80;29.38
12219;BME280;6172;42.646;23.344;2023-04-28T10:04:47;94841.97;;;16.06;28.94
12219;BME280;6172;42.646;23.344;2023-04-28T10:07:18;94847.06;;;16.51;28.68
12219;BME280;6172;42.646;23.344;2023-04-28T10:09:45;94842.00;;;16.28;28.84
12219;BME280;6172;42.646;23.344;2023-04-28T10:12:15;94852.50;;;16.85;28.33
12219;BME280;6172;42.646;23.344;2023-04-28T10:14:43;94837.25;;;16.93;28.11
12219;BME280;6172;42.646;23.344;2023-04-28T10:17:12;94838.44;;;17.13;27.62
12219;BME280;6172;42.646;23.344;2023-04-28T10:19:40;94833.81;;;17.41;27.01
12219;BME280;6172;42.646;23.344;2023-04-28T10:22:28;94843.03;;;17.47;27.10
12219;BME280;6172;42.646;23.344;2023-04-28T10:25:24;94834.47;;;17.14;27.07
12219;BME280;6172;42.646;23.344;2023-04-28T10:27:51;94834.84;;;17.65;26.23
12219;BME280;6172;42.646;23.344;2023-04-28T10:30:20;94831.28;;;17.56;26.64
12219;BME280;6172;42.646;23.344;2023-04-28T10:32:48;94830.16;;;18.02;26.21
12219;BME280;6172;42.646;23.344;2023-04-28T10:35:41;94832.56;;;17.73;26.19
12219;BME280;6172;42.646;23.344;2023-04-28T10:38:12;94810.38;;;17.37;26.80
12219;BME280;6172;42.646;23.344;2023-04-28T10:40:40;94812.84;;;17.44;26.27
12219;BME280;6172;42.646;23.344;2023-04-28T10:43:08;94814.81;;;17.83;26.20
12219;BME280;6172;42.646;23.344;2023-04-28T10:45:58;94811.00;;;17.41;26.31
12219;BME280;6172;42.646;23.344;2023-04-28T10:51:33;94804.09;;;17.76;25.93
12219;BME280;6172;42.646;23.344;2023-04-28T10:54:09;94795.00;;;17.17;26.74
12219;BME280;6172;42.646;23.344;2023-04-28T10:56:36;94802.75;;;17.01;26.52
12219;BME280;6172;42.646;23.344;2023-04-28T10:59:25;94797.06;;;17.35;26.57
12219;BME280;6172;42.646;23.344;2023-04-28T11:05:12;94798.00;;;16.71;26.51
12219;BME280;6172;42.646;23.344;2023-04-28T11:07:40;94784.41;;;16.55;26.77
12219;BME280;6172;42.646;23.344;2023-04-28T11:13:29;94785.38;;;16.82;26.45
12219;BME280;6172;42.646;23.344;2023-04-28T11:16:01;94785.09;;;16.89;26.56
12219;BME280;6172;42.646;23.344;2023-04-28T11:18:42;94785.41;;;16.91;26.94
12219;BME280;6172;42.646;23.344;2023-04-28T11:21:13;94780.44;;;16.77;26.85
12219;BME280;6172;42.646;23.344;2023-04-28T11:23:41;94773.34;;;17.38;26.41
12219;BME280;6172;42.646;23.344;2023-04-28T11:26:09;94775.44;;;16.85;26.59
12219;BME280;6172;42.646;23.344;2023-04-28T11:28:46;94769.03;;;17.27;26.17
12219;BME280;6172;42.646;23.344;2023-04-28T11:31:24;94762.97;;;17.02;26.31
12219;BME280;6172;42.646;23.344;2023-04-28T11:33:58;94772.78;;;16.72;26.68
12219;BME280;6172;42.646;23.344;2023-04-28T11:36:31;94767.19;;;16.85;26.14
12219;BME280;6172;42.646;23.344;2023-04-28T11:39:00;94758.94;;;16.63;26.00
12219;BME280;6172;42.646;23.344;2023-04-28T11:41:29;94751.03;;;17.05;25.89
12219;BME280;6172;42.646;23.344;2023-04-28T11:43:58;94755.03;;;17.13;25.59
12219;BME280;6172;42.646;23.344;2023-04-28T11:46:25;94758.16;;;16.84;26.03
12219;BME280;6172;42.646;23.344;2023-04-28T11:49:00;94752.44;;;17.09;24.99
12219;BME280;6172;42.646;23.344;2023-04-28T11:51:33;94740.97;;;17.11;25.49
12219;BME280;6172;42.646;23.344;2023-04-28T11:54:01;94747.75;;;16.88;25.81
12219;BME280;6172;42.646;23.344;2023-04-28T11:56:29;94745.72;;;17.10;25.52
12219;BME280;6172;42.646;23.344;2023-04-28T11:59:02;94749.09;;;17.14;23.95
12219;BME280;6172;42.646;23.344;2023-04-28T12:01:30;94744.75;;;16.95;23.63
12219;BME280;6172;42.646;23.344;2023-04-28T12:03:57;94746.50;;;16.80;24.65
12219;BME280;6172;42.646;23.344;2023-04-28T12:06:24;94743.19;;;16.94;25.36
12219;BME280;6172;42.646;23.344;2023-04-28T12:08:52;94743.69;;;17.02;25.33
12219;BME280;6172;42.646;23.344;2023-04-28T12:11:20;94745.88;;;16.76;25.49
12219;BME280;6172;42.646;23.344;2023-04-28T12:14:09;94734.50;;;16.44;25.76
12219;BME280;6172;42.646;23.344;2023-04-28T12:16:40;94736.28;;;16.59;25.15
12219;BME280;6172;42.646;23.344;2023-04-28T12:19:10;94724.09;;;16.91;25.25
12219;BME280;6172;42.646;23.344;2023-04-28T12:21:39;94728.56;;;16.45;24.76
12219;BME280;6172;42.646;23.344;2023-04-28T12:24:21;94719.53;;;16.66;25.19
12219;BME280;6172;42.646;23.344;2023-04-28T12:26:50;94708.84;;;17.08;25.55
12219;BME280;6172;42.646;23.344;2023-04-28T12:29:40;94719.75;;;16.81;25.59
12219;BME280;6172;42.646;23.344;2023-04-28T12:32:09;94716.59;;;17.00;25.86
12219;BME280;6172;42.646;23.344;2023-04-28T12:34:37;94708.56;;;17.15;25.68
12219;BME280;6172;42.646;23.344;2023-04-28T12:37:05;94707.94;;;16.71;26.17
12219;BME280;6172;42.646;23.344;2023-04-28T12:39:33;94701.97;;;17.21;26.66
12219;BME280;6172;42.646;23.344;2023-04-28T12:42:01;94700.94;;;17.46;26.35
12219;BME280;6172;42.646;23.344;2023-04-28T12:44:31;94707.97;;;17.29;26.28
12219;BME280;6172;42.646;23.344;2023-04-28T12:47:02;94703.38;;;17.35;26.46
12219;BME280;6172;42.646;23.344;2023-04-28T12:49:29;94702.19;;;17.45;26.10
12219;BME280;6172;42.646;23.344;2023-04-28T12:51:56;94713.63;;;17.34;26.65
12219;BME280;6172;42.646;23.344;2023-04-28T12:54:23;94703.81;;;16.76;26.45
12219;BME280;6172;42.646;23.344;2023-04-28T12:56:50;94694.91;;;16.41;26.05
12219;BME280;6172;42.646;23.344;2023-04-28T12:59:18;94697.91;;;16.04;26.20
12219;BME280;6172;42.646;23.344;2023-04-28T13:01:45;94690.09;;;16.54;26.21
12219;BME280;6172;42.646;23.344;2023-04-28T13:04:14;94683.84;;;16.93;27.20
12219;BME280;6172;42.646;23.344;2023-04-28T13:06:41;94675.94;;;17.04;26.60
12219;BME280;6172;42.646;23.344;2023-04-28T13:09:09;94686.91;;;16.86;27.06
12219;BME280;6172;42.646;23.344;2023-04-28T13:11:36;94678.88;;;16.70;27.27
12219;BME280;6172;42.646;23.344;2023-04-28T13:14:03;94683.53;;;16.82;26.84
12219;BME280;6172;42.646;23.344;2023-04-28T13:16:29;94680.44;;;16.80;26.83
12219;BME280;6172;42.646;23.344;2023-04-28T13:18:56;94676.13;;;16.70;27.79
12219;BME280;6172;42.646;23.344;2023-04-28T13:21:25;94686.84;;;16.77;27.51